createdAt,value
2017-10-09T00:00:10.711Z,9.00
2017-10-09T00:02:39.926Z,11.17
2017-10-09T00:05:09.159Z,9.23
2017-10-09T00:07:39.143Z,10.50
2017-10-09T00:10:08.377Z,7.90
2017-10-09T00:12:38.592Z,13.20
2017-10-09T00:15:08.551Z,7.80
2017-10-09T00:17:37.759Z,7.97
2017-10-09T00:20:06.947Z,10.37
2017-10-09T00:22:36.177Z,9.23
2017-10-09T00:25:05.421Z,10.80
2017-10-09T00:27:34.624Z,13.07
2017-10-09T00:30:03.863Z,9.50
2017-10-09T00:32:33.131Z,10.20
2017-10-09T00:35:02.360Z,13.60
2017-10-09T00:37:31.571Z,11.50
2017-10-09T00:40:00.862Z,12.40
2017-10-09T00:42:30.102Z,10.00
2017-10-09T00:44:59.402Z,8.93
2017-10-09T00:47:28.875Z,9.13
2017-10-09T00:49:58.879Z,7.93
2017-10-09T00:52:28.092Z,11.43
2017-10-09T00:54:58.105Z,7.13
2017-10-09T00:57:28.076Z,10.10
2017-10-09T00:59:58.015Z,9.30
2017-10-09T01:02:27.211Z,15.50
2017-10-09T01:04:56.415Z,8.93
2017-10-09T01:07:26.407Z,9.90
2017-10-09T01:09:55.621Z,7.37
2017-10-09T01:12:26.579Z,10.70
2017-10-09T01:14:55.772Z,11.00
2017-10-09T01:17:25.052Z,8.47
2017-10-09T01:19:54.267Z,11.87
2017-10-09T01:22:23.544Z,9.83
2017-10-09T01:24:52.792Z,10.53
2017-10-09T01:27:22.013Z,8.83
2017-10-09T01:29:51.324Z,10.20
2017-10-09T01:32:20.520Z,12.07
2017-10-09T01:34:49.724Z,10.60
2017-10-09T01:37:18.953Z,10.03
2017-10-09T01:39:48.172Z,14.60
2017-10-09T01:42:18.154Z,11.20
2017-10-09T01:44:47.455Z,9.00
2017-10-09T01:47:16.670Z,10.50
2017-10-09T01:49:46.642Z,15.20
2017-10-09T01:52:15.863Z,11.10
2017-10-09T01:54:45.862Z,10.00
2017-10-09T01:57:15.069Z,11.57
2017-10-09T01:59:44.259Z,10.20
2017-10-09T02:02:13.475Z,9.93
2017-10-09T02:04:42.678Z,12.93
2017-10-09T02:07:11.883Z,7.70
2017-10-09T02:09:41.091Z,14.00
2017-10-09T02:12:11.152Z,14.00
2017-10-09T02:14:40.402Z,9.80
2017-10-09T02:17:10.370Z,10.70
2017-10-09T02:19:39.595Z,8.87
2017-10-09T02:22:08.859Z,11.50
2017-10-09T02:24:38.055Z,12.90
2017-10-09T02:27:07.264Z,10.17
2017-10-09T02:29:36.480Z,8.63
2017-10-09T02:32:05.671Z,9.17
2017-10-09T02:34:34.908Z,8.30
2017-10-09T02:37:04.919Z,14.20
2017-10-09T02:39:34.891Z,13.93
2017-10-09T02:42:04.116Z,11.87
2017-10-09T02:44:33.330Z,14.10
2017-10-09T02:47:03.295Z,9.93
2017-10-09T02:49:32.485Z,11.50
2017-10-09T02:52:01.718Z,11.80
2017-10-09T02:54:30.916Z,11.60
2017-10-09T02:57:00.130Z,11.63
2017-10-09T02:59:29.339Z,15.43
2017-10-09T03:01:59.307Z,13.40
2017-10-09T03:04:28.541Z,12.83
2017-10-09T03:06:58.510Z,10.57
2017-10-09T03:09:27.715Z,14.93
2017-10-09T03:11:56.952Z,12.70
2017-10-09T03:14:26.959Z,13.00
2017-10-09T03:16:56.273Z,16.03
2017-10-09T03:19:26.242Z,15.40
2017-10-09T03:21:55.440Z,13.40
2017-10-09T03:37:47.267Z,14.03
2017-10-09T03:40:16.502Z,15.80
2017-10-09T03:42:45.704Z,15.13
2017-10-09T03:45:14.918Z,12.37
2017-10-09T03:47:44.118Z,16.73
2017-10-09T03:50:13.321Z,11.83
2017-10-09T03:52:42.550Z,13.50
2017-10-09T03:55:11.764Z,14.13
2017-10-09T03:57:40.979Z,13.53
2017-10-09T04:00:10.947Z,14.47
2017-10-09T04:02:40.193Z,16.17
2017-10-09T04:05:09.393Z,23.20
2017-10-09T04:07:39.368Z,19.90
2017-10-09T04:10:08.614Z,14.60
2017-10-09T04:12:37.819Z,17.27
2017-10-09T04:15:07.051Z,18.13
2017-10-09T04:17:36.251Z,17.20
2017-10-09T04:20:05.488Z,16.50
2017-10-09T04:22:35.555Z,16.60
2017-10-09T04:25:04.811Z,12.80
2017-10-09T04:27:34.806Z,15.90
2017-10-09T04:30:03.999Z,16.57
2017-10-09T04:32:33.207Z,15.20
2017-10-09T04:35:03.187Z,12.83
2017-10-09T04:37:32.409Z,15.67
2017-10-09T04:40:01.601Z,22.20
2017-10-09T04:42:30.843Z,12.67
2017-10-09T04:45:00.068Z,12.00
2017-10-09T04:47:29.259Z,12.50
2017-10-09T04:49:58.478Z,13.80
2017-10-09T04:52:27.698Z,11.63
2017-10-09T04:54:56.910Z,12.70
2017-10-09T04:57:26.110Z,12.77
2017-10-09T04:59:56.092Z,14.13
2017-10-09T05:02:25.295Z,11.33
2017-10-09T05:04:54.579Z,14.90
2017-10-09T05:07:23.787Z,15.70
2017-10-09T05:09:53.021Z,13.57
2017-10-09T05:12:22.995Z,11.67
2017-10-09T05:14:52.299Z,19.57
2017-10-09T05:17:23.015Z,13.87
2017-10-09T05:19:52.224Z,14.00
2017-10-09T05:22:21.452Z,12.67
2017-10-09T05:24:51.419Z,13.07
2017-10-09T05:27:20.632Z,14.17
2017-10-09T05:29:49.827Z,12.10
2017-10-09T05:32:19.070Z,10.53
2017-10-09T05:34:49.026Z,9.10
2017-10-09T05:37:18.268Z,16.10
2017-10-09T05:39:47.448Z,10.93
2017-10-09T05:42:16.868Z,11.53
2017-10-09T05:44:46.860Z,12.57
2017-10-09T05:47:16.112Z,10.63
2017-10-09T05:49:45.342Z,15.50
2017-10-09T05:52:14.829Z,9.33
2017-10-09T05:54:44.026Z,9.87
2017-10-09T05:57:13.233Z,12.37
2017-10-09T05:59:42.460Z,11.17
2017-10-09T06:02:11.881Z,10.70
2017-10-09T06:04:41.106Z,11.37
2017-10-09T06:07:11.054Z,8.93
2017-10-09T06:09:40.259Z,11.10
2017-10-09T06:12:09.490Z,15.60
2017-10-09T06:14:38.682Z,9.90
2017-10-09T06:17:07.869Z,7.53
2017-10-09T06:19:37.083Z,12.67
2017-10-09T06:22:07.068Z,11.23
2017-10-09T06:24:36.311Z,14.73
2017-10-09T06:27:05.506Z,9.93
2017-10-09T06:29:34.702Z,10.40
2017-10-09T06:32:03.927Z,12.03
2017-10-09T06:34:33.131Z,12.57
2017-10-09T06:37:02.386Z,13.20
2017-10-09T06:39:32.340Z,13.30
2017-10-09T06:42:01.605Z,10.90
2017-10-09T06:44:30.836Z,10.40
2017-10-09T06:47:00.791Z,15.33
2017-10-09T06:49:30.002Z,14.03
2017-10-09T06:51:59.252Z,9.73
2017-10-09T06:54:28.479Z,16.17
2017-10-09T06:56:57.678Z,13.07
2017-10-09T06:59:27.675Z,12.47
2017-10-09T07:01:56.884Z,12.20
2017-10-09T07:04:26.099Z,9.80
2017-10-09T07:06:55.310Z,11.70
2017-10-09T07:09:24.520Z,11.83
2017-10-09T07:11:54.496Z,13.60
2017-10-09T07:14:23.706Z,15.00
2017-10-09T07:16:52.979Z,12.90
2017-10-09T07:19:22.208Z,11.20
2017-10-09T07:21:51.414Z,16.17
2017-10-09T07:24:21.388Z,12.83
2017-10-09T07:26:50.620Z,14.57
2017-10-09T07:29:19.819Z,12.70
2017-10-09T07:31:49.063Z,13.43
2017-10-09T07:34:18.331Z,16.70
2017-10-09T07:36:47.549Z,16.80
2017-10-09T07:39:16.774Z,11.63
2017-10-09T07:41:45.994Z,15.00
2017-10-09T07:44:15.194Z,15.40
2017-10-09T07:46:45.223Z,12.33
2017-10-09T07:49:15.224Z,15.93
2017-10-09T07:51:44.503Z,22.20
2017-10-09T07:54:14.506Z,15.00
2017-10-09T07:56:43.764Z,18.00
2017-10-09T07:59:12.988Z,20.30
2017-10-09T08:01:42.186Z,20.40
2017-10-09T08:04:11.407Z,20.07
2017-10-09T08:06:40.620Z,16.80
2017-10-09T08:09:09.881Z,17.90
2017-10-09T08:11:39.082Z,15.30
2017-10-09T08:14:08.303Z,17.27
2017-10-09T08:16:37.565Z,20.93
2017-10-09T08:19:06.783Z,18.23
2017-10-09T08:21:36.118Z,14.77
2017-10-09T08:24:05.350Z,14.70
2017-10-09T08:26:34.566Z,16.00
2017-10-09T08:29:03.811Z,14.00
2017-10-09T08:31:33.058Z,19.80
2017-10-09T08:34:02.286Z,13.43
2017-10-09T08:36:31.522Z,21.77
2017-10-09T08:39:01.503Z,11.40
2017-10-09T08:41:30.727Z,17.00
2017-10-09T08:44:00.752Z,13.27
2017-10-09T08:46:29.951Z,16.73
2017-10-09T08:48:59.194Z,15.67
2017-10-09T08:51:28.412Z,13.93
2017-10-09T08:53:57.791Z,20.70
2017-10-09T08:56:27.057Z,14.73
2017-10-09T08:58:57.211Z,11.73
2017-10-09T09:01:26.434Z,14.47
2017-10-09T09:03:55.642Z,10.97
2017-10-09T09:06:24.869Z,10.30
2017-10-09T09:08:54.839Z,15.40
2017-10-09T09:11:24.063Z,13.20
2017-10-09T09:13:54.175Z,14.27
2017-10-09T09:16:23.401Z,17.07
2017-10-09T09:18:52.609Z,12.13
2017-10-09T09:21:21.851Z,10.07
2017-10-09T09:23:51.059Z,14.70
2017-10-09T09:26:20.266Z,13.57
2017-10-09T09:28:49.495Z,15.50
2017-10-09T09:31:18.711Z,14.97
2017-10-09T09:33:47.924Z,16.33
2017-10-09T09:36:17.135Z,10.93
2017-10-09T09:38:46.353Z,16.63
2017-10-09T09:41:15.592Z,14.47
2017-10-09T09:43:44.844Z,15.77
2017-10-09T09:46:14.058Z,15.57
2017-10-09T09:48:44.037Z,14.17
2017-10-09T09:51:13.252Z,11.40
2017-10-09T09:53:42.526Z,18.20
2017-10-09T09:56:11.735Z,14.10
2017-10-09T09:58:40.959Z,16.80
2017-10-09T10:01:10.208Z,16.40
2017-10-09T10:03:39.423Z,17.07
2017-10-09T10:06:10.146Z,15.10
2017-10-09T10:08:39.495Z,13.70
2017-10-09T10:11:08.735Z,10.83
2017-10-09T10:13:37.954Z,12.97
2017-10-09T10:16:07.186Z,13.57
2017-10-09T10:18:37.214Z,14.40
2017-10-09T10:21:07.533Z,14.80
2017-10-09T10:23:37.561Z,13.10
2017-10-09T10:26:07.526Z,16.83
2017-10-09T10:28:36.763Z,14.93
2017-10-09T10:31:07.043Z,11.50
2017-10-09T10:33:36.260Z,14.70
2017-10-09T10:36:05.607Z,15.83
2017-10-09T10:38:34.981Z,14.93
2017-10-09T10:41:05.071Z,11.27
2017-10-09T10:43:34.310Z,14.13
2017-10-09T10:46:03.556Z,12.47
2017-10-09T10:48:32.815Z,11.60
2017-10-09T10:51:02.020Z,14.30
2017-10-09T10:53:31.291Z,10.73
2017-10-09T10:56:01.262Z,14.67
2017-10-09T10:58:30.483Z,12.90
2017-10-09T11:00:59.760Z,15.60
2017-10-09T11:03:29.757Z,13.27
2017-10-09T11:05:58.967Z,13.40
2017-10-09T11:08:28.526Z,14.10
2017-10-09T11:10:58.498Z,14.83
2017-10-09T11:13:27.747Z,12.10
2017-10-09T11:15:56.981Z,16.50
2017-10-09T11:18:26.215Z,13.70
2017-10-09T11:20:56.195Z,12.00
2017-10-09T11:23:25.422Z,12.50
2017-10-09T11:25:54.641Z,9.30
2017-10-09T11:28:24.631Z,11.90
2017-10-09T11:30:53.859Z,10.93
2017-10-09T11:33:23.843Z,10.07
2017-10-09T11:35:53.072Z,12.20
2017-10-09T11:38:23.083Z,9.33
2017-10-09T11:40:52.280Z,8.90
2017-10-09T11:43:22.251Z,11.57
2017-10-09T11:45:51.511Z,9.93
2017-10-09T11:48:20.729Z,9.40
2017-10-09T11:50:49.995Z,12.30
2017-10-09T11:53:19.982Z,10.80
2017-10-09T11:55:49.238Z,11.00
2017-10-09T11:58:18.497Z,13.00
2017-10-09T12:00:47.709Z,12.43
2017-10-09T12:03:16.966Z,12.43
2017-10-09T12:05:46.198Z,13.27
2017-10-09T12:08:15.575Z,10.73
2017-10-09T12:10:44.853Z,11.83
2017-10-09T12:13:14.075Z,11.97
2017-10-09T12:15:43.342Z,15.37
2017-10-09T12:18:12.579Z,16.00
2017-10-09T12:20:41.791Z,15.90
2017-10-09T12:23:11.792Z,17.17
2017-10-09T12:25:41.790Z,17.33
2017-10-09T12:28:11.087Z,14.93
2017-10-09T12:30:41.096Z,15.77
2017-10-09T12:33:10.324Z,13.43
2017-10-09T12:35:39.576Z,12.67
2017-10-09T12:38:08.791Z,15.63
2017-10-09T12:40:37.997Z,14.20
2017-10-09T12:43:07.233Z,15.30
2017-10-09T12:45:36.489Z,15.87
2017-10-09T12:48:05.747Z,15.73
2017-10-09T12:50:34.964Z,15.80
2017-10-09T12:53:04.147Z,16.00
2017-10-09T12:55:33.352Z,20.87
2017-10-09T12:58:02.579Z,14.93
2017-10-09T13:00:31.823Z,15.83
2017-10-09T13:09:10.184Z,22.00
2017-10-09T13:11:39.417Z,22.30
2017-10-09T13:14:08.912Z,18.27
2017-10-09T13:16:38.123Z,18.63
2017-10-09T13:19:07.483Z,14.60
2017-10-09T13:21:36.692Z,21.97
2017-10-09T13:24:05.968Z,19.90
2017-10-09T13:26:35.951Z,17.33
2017-10-09T13:29:05.231Z,15.93
2017-10-09T13:31:34.440Z,18.73
2017-10-09T13:34:03.655Z,18.00
2017-10-09T13:36:33.959Z,17.90
2017-10-09T13:39:06.136Z,18.53
2017-10-09T13:41:35.427Z,18.47
2017-10-09T13:44:04.666Z,21.47
2017-10-09T13:46:34.659Z,19.10
2017-10-09T14:18:58.133Z,21.67
2017-10-09T14:21:27.364Z,24.70
2017-10-09T14:23:56.621Z,19.30
2017-10-09T14:26:25.828Z,23.20
2017-10-09T14:28:55.067Z,21.27
2017-10-09T14:41:21.192Z,23.53
2017-10-09T14:43:50.404Z,21.90
2017-10-09T14:46:20.432Z,25.57
2017-10-09T14:48:49.727Z,24.83
2017-10-09T14:51:19.016Z,34.67
2017-10-09T14:53:48.212Z,25.37
2017-10-09T14:56:17.437Z,28.47
2017-10-09T14:58:47.422Z,34.57
2017-10-09T15:01:16.660Z,29.13
2017-10-09T15:03:45.893Z,26.80
2017-10-09T15:06:15.162Z,31.37
2017-10-09T15:08:44.388Z,27.67
2017-10-09T15:11:13.685Z,31.13
2017-10-09T15:13:42.938Z,28.37
2017-10-09T15:16:12.930Z,29.60
2017-10-09T15:18:42.155Z,27.97
2017-10-09T15:21:12.164Z,27.70
2017-10-09T15:23:42.158Z,29.53
2017-10-09T15:26:11.398Z,27.07
2017-10-09T15:28:41.381Z,29.07
2017-10-09T15:31:10.614Z,30.20
2017-10-09T15:33:39.828Z,27.63
2017-10-09T15:36:10.044Z,29.87
2017-10-09T15:38:39.259Z,27.93
2017-10-09T15:41:08.563Z,30.00
2017-10-09T15:43:37.786Z,32.30
2017-10-09T15:46:07.024Z,31.10
2017-10-09T15:48:37.062Z,29.33
2017-10-09T15:51:06.361Z,28.40
2017-10-09T15:53:35.608Z,27.20
2017-10-09T15:56:04.824Z,28.93
2017-10-09T15:58:34.839Z,24.43
2017-10-09T16:01:04.890Z,28.20
2017-10-09T16:03:34.118Z,26.90
2017-10-09T16:06:04.217Z,29.97
2017-10-09T16:08:33.442Z,22.83
2017-10-09T16:11:02.680Z,23.37
2017-10-09T16:13:32.690Z,26.23
2017-10-09T16:16:02.844Z,24.50
2017-10-09T16:18:32.070Z,25.90
2017-10-09T16:21:01.334Z,27.23
2017-10-09T16:23:30.591Z,26.10
2017-10-09T16:26:00.572Z,25.10
2017-10-09T16:28:29.806Z,24.37
2017-10-09T16:30:59.807Z,28.83
2017-10-09T16:33:29.338Z,25.87
2017-10-09T16:35:59.348Z,22.17
2017-10-09T16:38:29.331Z,25.23
2017-10-09T16:40:58.572Z,22.07
2017-10-09T16:43:27.786Z,22.50
2017-10-09T16:45:57.033Z,26.00
2017-10-09T16:48:26.329Z,26.03
2017-10-09T16:50:55.541Z,20.93
2017-10-09T16:53:24.763Z,24.03
2017-10-09T16:55:54.038Z,27.60
2017-10-09T16:58:23.284Z,22.00
2017-10-09T17:00:52.504Z,20.40
2017-10-09T17:03:21.742Z,23.47
2017-10-09T17:05:50.953Z,24.23
2017-10-09T17:08:20.943Z,24.50
2017-10-09T17:10:51.694Z,24.53
2017-10-09T17:13:21.699Z,28.77
2017-10-09T17:15:50.923Z,21.10
2017-10-09T17:18:20.232Z,27.10
2017-10-09T17:20:49.496Z,22.37
2017-10-09T17:23:19.515Z,24.63
2017-10-09T17:25:48.724Z,22.00
2017-10-09T17:28:18.726Z,24.90
2017-10-09T17:30:48.733Z,24.00
2017-10-09T17:33:18.828Z,29.13
2017-10-09T17:35:48.070Z,25.73
2017-10-09T17:38:18.073Z,23.83
2017-10-09T17:40:47.336Z,27.33
2017-10-09T17:43:16.568Z,27.77
2017-10-09T17:45:46.624Z,21.43
2017-10-09T17:48:15.869Z,24.23
2017-10-09T17:50:45.176Z,23.37
2017-10-09T17:53:14.395Z,25.37
2017-10-09T17:55:44.390Z,24.80
2017-10-09T17:58:14.396Z,25.03
2017-10-09T18:00:43.642Z,27.47
2017-10-09T18:03:12.904Z,25.27
2017-10-09T18:05:42.906Z,26.97
2017-10-09T18:08:12.173Z,26.33
2017-10-09T18:10:41.401Z,32.70
2017-10-09T18:13:10.628Z,31.77
2017-10-09T18:15:40.625Z,27.30
2017-10-09T18:18:09.880Z,29.07
2017-10-09T18:20:39.096Z,29.60
2017-10-09T18:23:08.314Z,32.20
2017-10-09T18:25:37.584Z,28.17
2017-10-09T18:28:06.796Z,24.30
2017-10-09T18:30:36.795Z,28.97
2017-10-09T18:33:06.030Z,29.07
2017-10-09T18:35:36.048Z,29.73
2017-10-09T18:38:06.048Z,31.77
2017-10-09T18:40:35.355Z,29.67
2017-10-09T18:43:04.587Z,28.43
2017-10-09T18:45:33.763Z,29.40
2017-10-09T18:48:03.051Z,25.00
2017-10-09T18:50:32.272Z,31.27
2017-10-09T18:53:02.297Z,26.27
2017-10-09T18:55:32.310Z,26.97
2017-10-09T18:58:02.375Z,30.17
2017-10-09T19:00:31.586Z,43.43
2017-10-09T19:03:00.816Z,32.30
2017-10-09T19:05:30.824Z,34.40
2017-10-09T19:08:00.045Z,30.67
2017-10-09T19:10:30.074Z,36.97
2017-10-09T19:12:59.295Z,32.73
2017-10-09T19:15:28.552Z,34.43
2017-10-09T19:17:58.569Z,31.13
2017-10-09T19:20:28.560Z,32.10
2017-10-09T19:22:57.847Z,28.87
2017-10-09T19:25:27.202Z,26.03
2017-10-09T19:27:56.391Z,26.10
2017-10-09T19:30:25.623Z,26.50
2017-10-09T19:32:54.872Z,25.10
2017-10-09T19:35:24.863Z,25.77
2017-10-09T19:37:54.873Z,25.53
2017-10-09T19:40:24.131Z,22.77
2017-10-09T19:42:53.371Z,24.03
2017-10-09T19:45:22.620Z,22.93
2017-10-09T19:47:51.850Z,20.63
2017-10-09T19:50:21.929Z,24.53
2017-10-09T19:52:51.895Z,23.43
2017-10-09T19:55:21.143Z,22.37
2017-10-09T19:57:50.372Z,26.90
2017-10-09T20:00:19.639Z,20.93
2017-10-09T20:02:48.867Z,24.93
2017-10-09T20:05:18.121Z,22.30
2017-10-09T20:07:48.153Z,23.33
2017-10-09T20:10:17.423Z,22.90
2017-10-09T20:12:47.420Z,28.90
2017-10-09T20:15:16.671Z,20.40
2017-10-09T20:17:45.915Z,22.53
2017-10-09T20:20:15.167Z,26.33
2017-10-09T20:22:44.418Z,23.00
2017-10-09T20:25:13.616Z,18.27
2017-10-09T20:27:43.799Z,21.00
2017-10-09T20:30:13.028Z,21.20
2017-10-09T20:32:42.252Z,20.40
2017-10-09T20:35:11.492Z,22.20
2017-10-09T20:37:40.999Z,18.23
2017-10-09T20:40:10.203Z,21.40
2017-10-09T20:42:39.467Z,22.07
2017-10-09T20:45:08.937Z,18.63
2017-10-09T20:47:38.131Z,19.10
2017-10-09T20:50:07.338Z,24.77
2017-10-09T20:52:36.583Z,23.40
2017-10-09T20:55:05.789Z,26.60
2017-10-09T20:57:35.127Z,23.60
2017-10-09T21:00:04.416Z,24.93
2017-10-09T21:02:34.697Z,25.40
2017-10-09T21:05:04.862Z,23.17
2017-10-09T21:07:34.091Z,27.90
2017-10-09T21:10:03.315Z,96.60
2017-10-09T21:12:32.552Z,25.20
2017-10-09T21:15:01.812Z,30.13
2017-10-09T21:17:31.025Z,27.00
2017-10-09T21:20:00.251Z,21.43
2017-10-09T21:22:29.487Z,25.37
2017-10-09T21:24:58.706Z,21.73
2017-10-09T21:27:27.955Z,22.60
2017-10-09T21:29:57.152Z,22.67
2017-10-09T21:32:26.395Z,22.13
2017-10-09T21:34:55.646Z,29.83
2017-10-09T21:37:25.664Z,23.10
2017-10-09T21:39:54.892Z,22.90
2017-10-09T21:42:24.139Z,25.73
2017-10-09T21:44:53.360Z,23.03
2017-10-09T21:47:23.432Z,22.73
2017-10-09T21:49:52.639Z,26.70
2017-10-09T21:52:21.868Z,26.20
2017-10-09T21:54:51.077Z,29.97
2017-10-09T21:57:21.086Z,30.20
2017-10-09T21:59:50.299Z,30.53
2017-10-09T22:02:20.309Z,30.13
2017-10-09T22:04:50.290Z,27.10
2017-10-09T22:07:19.556Z,29.47
2017-10-09T22:09:48.763Z,31.20
2017-10-09T22:12:18.023Z,27.60
2017-10-09T22:14:48.007Z,34.03
2017-10-09T22:17:17.240Z,26.53
2017-10-09T22:19:46.463Z,33.27
2017-10-09T22:22:15.701Z,29.03
2017-10-09T22:24:44.915Z,36.20
2017-10-09T22:27:14.183Z,31.90
2017-10-09T22:29:43.397Z,33.03
2017-10-09T22:32:12.605Z,27.97
2017-10-09T22:34:41.824Z,30.10
2017-10-09T22:37:11.044Z,33.63
2017-10-09T22:39:40.271Z,33.20
2017-10-09T22:42:09.488Z,31.10
2017-10-09T22:44:38.741Z,39.60
2017-10-09T22:47:07.964Z,30.53
2017-10-09T22:49:37.948Z,31.97
2017-10-09T22:52:07.219Z,28.77
2017-10-09T22:54:43.036Z,28.97
2017-10-09T22:57:12.244Z,29.43
2017-10-09T22:59:41.521Z,31.97
2017-10-09T23:02:10.731Z,32.73
2017-10-09T23:04:39.950Z,32.03
2017-10-09T23:07:09.155Z,36.30
2017-10-09T23:09:39.159Z,38.07
2017-10-09T23:12:08.384Z,32.53
2017-10-09T23:14:37.601Z,30.60
2017-10-09T23:17:06.836Z,30.27
2017-10-09T23:19:36.056Z,26.73
2017-10-09T23:22:05.268Z,33.27
2017-10-09T23:24:35.262Z,30.23
2017-10-09T23:27:04.473Z,28.87
2017-10-09T23:29:34.472Z,30.43
2017-10-09T23:32:03.697Z,34.67
2017-10-09T23:34:33.685Z,33.00
2017-10-09T23:37:02.955Z,35.37
2017-10-09T23:39:32.213Z,34.53
2017-10-09T23:42:02.195Z,35.70
2017-10-09T23:44:31.393Z,35.13
2017-10-09T23:47:00.677Z,32.63
2017-10-09T23:49:30.328Z,33.70
2017-10-09T23:52:00.311Z,35.90
2017-10-09T23:54:30.313Z,37.27
2017-10-09T23:56:59.527Z,33.70
2017-10-09T23:59:28.733Z,31.23
